Time;durP1;ratioP1;P1;durP2;ratioP2;P2;SDS_P1;SDS_P2;PMS_P1;PMS_P2;Temp;Humidity;BMP_temperature;BMP_pressure;BME280_temperature;BME280_humidity;BME280_pressure;Samples;Min_cycle;Max_cycle;Signal;HPM_P1;HPM_P2
2024/01/13 00:01:48;;;;;;;32.95;13.48;;;;;;;0.08;60.12;95791.78;6184666;23;20022;-86
2024/01/13 00:04:14;;;;;;;31.25;12.93;;;;;;;0.22;58.92;95784.03;6162695;23;20059;-85
2024/01/13 00:06:39;;;;;;;31.52;13.25;;;;;;;0.22;59.81;95785.78;6187262;23;20008;-85
2024/01/13 00:09:07;;;;;;;33.13;13.43;;;;;;;0.29;59.41;95795.50;6208685;23;20132;-85
2024/01/13 00:19:09;;;;;;;34.03;14.50;;;;;;;0.47;59.48;95782.44;6183665;23;20024;-85
2024/01/13 00:21:35;;;;;;;33.22;14.50;;;;;;;0.53;59.47;95785.41;6132231;23;20017;-85
2024/01/13 00:24:00;;;;;;;32.35;14.30;;;;;;;0.37;60.12;95777.91;6133438;23;20020;-85
2024/01/13 00:26:26;;;;;;;31.95;14.05;;;;;;;0.59;59.53;95779.03;6133216;23;20012;-87
2024/01/13 00:28:51;;;;;;;28.05;12.77;;;;;;;0.51;59.83;95771.06;6132696;23;20009;-85
2024/01/13 00:31:16;;;;;;;32.60;13.80;;;;;;;0.71;58.98;95783.34;6158040;23;20005;-86
2024/01/13 00:33:43;;;;;;;30.48;13.38;;;;;;;0.76;58.93;95780.47;6133042;23;20017;-85
2024/01/13 00:36:12;;;;;;;34.60;13.20;;;;;;;0.69;59.11;95769.84;6133588;23;20017;-84
2024/01/13 00:38:38;;;;;;;32.28;13.82;;;;;;;0.89;58.48;95773.59;6135494;23;20016;-85
2024/01/13 00:46:17;;;;;;;29.90;13.00;;;;;;;0.49;58.75;95767.78;6190458;22;20021;-85
2024/01/13 00:48:43;;;;;;;29.73;13.50;;;;;;;0.64;58.69;95774.44;6189329;23;20004;-85
2024/01/13 00:51:11;;;;;;;29.02;12.98;;;;;;;0.77;58.52;95782.94;6189370;23;20063;-85
2024/01/13 00:56:03;;;;;;;28.98;12.43;;;;;;;0.83;58.58;95771.44;6213515;23;20012;-85
2024/01/13 00:58:28;;;;;;;27.42;12.15;;;;;;;0.73;58.36;95758.47;6187844;23;20013;-85
2024/01/13 01:00:59;;;;;;;25.70;11.68;;;;;;;0.70;58.21;95771.44;6139146;23;20099;-85
2024/01/13 01:03:26;;;;;;;29.65;12.50;;;;;;;0.47;59.00;95765.31;6139725;23;20019;-85
2024/01/13 01:13:38;;;;;;;26.83;11.27;;;;;;;0.28;58.64;95750.38;6214466;23;20017;-85
2024/01/13 01:16:04;;;;;;;24.50;10.35;;;;;;;0.28;58.61;95752.13;6164440;23;20019;-85
2024/01/13 01:18:29;;;;;;;21.98;10.68;;;;;;;0.33;57.95;95753.44;6163731;23;20014;-85
2024/01/13 01:20:58;;;;;;;19.30;9.38;;;;;;;0.10;57.36;95751.59;6164309;23;20038;-86
2024/01/13 01:23:24;;;;;;;17.42;8.75;;;;;;;-0.21;57.73;95740.78;6189147;23;20095;-86
2024/01/13 01:28:26;;;;;;;12.15;6.63;;;;;;;-0.10;56.31;95746.00;6212153;23;20184;-86
2024/01/13 01:30:51;;;;;;;13.85;6.68;;;;;;;-0.08;56.01;95745.91;6188680;23;20015;-86
2024/01/13 01:33:17;;;;;;;12.30;6.10;;;;;;;-0.18;55.59;95732.91;6188990;23;20013;-85
2024/01/13 01:35:43;;;;;;;11.90;5.78;;;;;;;-0.13;55.00;95730.88;6188950;23;20012;-85
2024/01/13 01:38:09;;;;;;;10.35;5.32;;;;;;;-0.74;55.93;95725.38;6164503;23;20013;-85
2024/01/13 01:43:00;;;;;;;10.93;5.60;;;;;;;-1.09;55.31;95719.88;6210958;23;20024;-85
2024/01/13 01:45:29;;;;;;;11.35;6.07;;;;;;;-1.29;56.50;95734.69;6218296;23;20087;-86
2024/01/13 01:47:55;;;;;;;12.30;6.07;;;;;;;-1.76;57.79;95728.09;6193615;23;20032;-86
2024/01/13 01:50:21;;;;;;;10.20;5.47;;;;;;;-1.91;57.95;95727.25;6194581;23;20007;-85
2024/01/13 01:52:46;;;;;;;9.38;5.40;;;;;;;-1.70;57.97;95727.75;6218610;23;20008;-85
2024/01/13 01:55:13;;;;;;;9.27;5.28;;;;;;;-1.47;56.96;95725.56;6203318;23;20013;-85
2024/01/13 01:57:38;;;;;;;9.43;5.40;;;;;;;-1.47;56.68;95717.91;6158951;23;20076;-85
2024/01/13 02:00:07;;;;;;;9.30;5.13;;;;;;;-1.78;56.64;95723.09;6134270;23;20013;-85
2024/01/13 02:02:33;;;;;;;9.05;4.45;;;;;;;-1.85;57.22;95721.00;6183557;23;20009;-86
2024/01/13 02:05:00;;;;;;;8.45;4.32;;;;;;;-1.63;57.29;95710.38;6159195;23;20043;-85
2024/01/13 02:09:52;;;;;;;7.07;3.65;;;;;;;-1.81;57.79;95702.91;6206457;23;20032;-85
2024/01/13 02:12:18;;;;;;;8.35;4.75;;;;;;;-2.01;57.40;95721.06;6164253;23;20004;-85
2024/01/13 02:14:43;;;;;;;7.90;4.55;;;;;;;-1.98;57.64;95698.78;6163416;23;20019;-85
2024/01/13 02:17:09;;;;;;;9.18;4.80;;;;;;;-1.84;56.35;95708.16;6177551;23;20086;-85
2024/01/13 02:19:35;;;;;;;11.27;5.50;;;;;;;-1.77;56.69;95703.53;6188670;23;20012;-84
2024/01/13 02:22:00;;;;;;;8.70;5.05;;;;;;;-2.06;56.79;95711.13;6188623;23;20008;-85
2024/01/13 02:24:26;;;;;;;8.65;4.93;;;;;;;-2.69;58.22;95694.28;6163632;23;20008;-85
2024/01/13 02:26:51;;;;;;;8.63;4.97;;;;;;;-2.60;58.51;95692.97;6188028;23;20060;-85
2024/01/13 02:29:17;;;;;;;10.25;5.22;;;;;;;-2.17;57.57;95698.16;6181238;23;20116;-85
2024/01/13 02:31:42;;;;;;;12.90;5.15;;;;;;;-2.25;57.29;95683.31;6134346;23;20005;-85
2024/01/13 02:34:08;;;;;;;10.43;5.10;;;;;;;-2.05;57.22;95700.03;6158916;23;20009;-85
2024/01/13 02:36:37;;;;;;;10.40;4.72;;;;;;;-2.32;58.11;95683.75;6109206;23;20013;-86
2024/01/13 02:39:03;;;;;;;9.40;4.80;;;;;;;-2.10;57.29;95688.47;6133819;23;20013;-85
2024/01/13 02:41:33;;;;;;;10.23;4.63;;;;;;;-2.14;57.11;95669.97;6134015;23;20083;-85
2024/01/13 02:44:00;;;;;;;8.65;4.70;;;;;;;-1.99;56.73;95671.63;6158558;23;20005;-85
2024/01/13 02:46:28;;;;;;;8.50;4.72;;;;;;;-2.01;56.75;95650.50;6133367;23;20005;-85
2024/01/13 02:48:57;;;;;;;9.88;5.03;;;;;;;-1.89;57.20;95658.34;6158699;23;20005;-85
2024/01/13 02:51:24;;;;;;;8.18;3.85;;;;;;;-2.10;56.73;95640.84;6158198;23;20012;-85
2024/01/13 02:53:49;;;;;;;13.15;4.82;;;;;;;-1.96;56.42;95647.72;6157313;23;20043;-86
2024/01/13 02:56:15;;;;;;;7.95;4.03;;;;;;;-1.92;56.29;95645.78;6155753;23;20012;-85
2024/01/13 02:58:41;;;;;;;8.43;4.35;;;;;;;-1.95;57.13;95640.88;6158091;23;20024;-85
2024/01/13 03:01:07;;;;;;;10.65;4.80;;;;;;;-1.94;57.46;95629.75;6158401;23;20005;-86
2024/01/13 03:03:36;;;;;;;12.25;5.63;;;;;;;-1.73;57.30;95623.38;6211655;23;20019;-85
2024/01/13 03:06:04;;;;;;;13.27;5.70;;;;;;;-1.82;57.89;95629.84;6162958;23;20004;-85
2024/01/13 03:08:29;;;;;;;14.75;6.32;;;;;;;-1.92;58.81;95621.13;6162862;23;20071;-85
2024/01/13 03:10:55;;;;;;;14.73;5.95;;;;;;;-1.65;58.38;95625.47;6188027;23;20000;-85
2024/01/13 03:13:20;;;;;;;14.15;6.03;;;;;;;-1.54;57.74;95617.16;6162966;23;20012;-86
2024/01/13 03:18:21;;;;;;;16.65;7.28;;;;;;;-1.22;57.45;95602.41;6209355;23;20330;-85
2024/01/13 03:20:46;;;;;;;20.50;8.07;;;;;;;-1.34;59.28;95605.72;6163108;23;20009;-85
2024/01/13 03:23:12;;;;;;;22.67;9.20;;;;;;;-1.02;58.37;95604.53;6188194;23;20005;-85
2024/01/13 03:25:37;;;;;;;21.17;8.55;;;;;;;-1.12;58.67;95588.16;6176900;23;20029;-85
2024/01/13 03:28:04;;;;;;;19.73;8.18;;;;;;;-1.11;58.18;95577.03;6162425;23;20040;-85
2024/01/13 03:30:29;;;;;;;19.63;8.13;;;;;;;-1.12;58.46;95582.22;6163072;23;20047;-85
2024/01/13 03:32:54;;;;;;;20.33;8.77;;;;;;;-0.98;58.09;95592.38;6163168;23;20016;-85
2024/01/13 03:35:24;;;;;;;19.02;7.60;;;;;;;-1.06;58.27;95594.63;6163162;23;20008;-85
2024/01/13 03:37:51;;;;;;;19.25;8.02;;;;;;;-0.96;58.55;95582.09;6137857;23;20130;-86
2024/01/13 03:40:16;;;;;;;22.48;8.65;;;;;;;-1.10;58.62;95580.41;6209311;22;20032;-85
2024/01/13 03:42:45;;;;;;;23.08;9.35;;;;;;;-0.93;59.16;95597.19;6187803;23;20083;-85
2024/01/13 03:45:15;;;;;;;22.27;9.55;;;;;;;-0.92;59.57;95594.53;6187840;23;20087;-86
2024/01/13 03:47:40;;;;;;;29.58;11.27;;;;;;;-0.84;59.80;95606.81;6187610;23;20076;-85
2024/01/13 03:52:36;;;;;;;24.02;9.93;;;;;;;-0.67;59.25;95608.28;6173495;23;20020;-86
2024/01/13 03:55:02;;;;;;;23.80;9.05;;;;;;;-0.82;59.55;95616.03;6212352;23;20084;-85
2024/01/13 03:57:27;;;;;;;22.50;8.68;;;;;;;-0.82;60.13;95616.03;6162636;23;20035;-85
2024/01/13 03:59:52;;;;;;;14.75;6.50;;;;;;;-0.94;60.50;95613.44;6163121;23;20020;-85
2024/01/13 04:02:21;;;;;;;13.13;5.65;;;;;;;-0.81;58.71;95606.63;6212790;23;20023;-85
2024/01/13 04:04:47;;;;;;;14.35;5.40;;;;;;;-0.66;57.98;95600.53;6188549;23;20013;-85
2024/01/13 04:07:12;;;;;;;16.85;7.05;;;;;;;-0.89;58.61;95614.78;6187019;23;20000;-85
2024/01/13 04:09:39;;;;;;;17.45;6.57;;;;;;;-0.80;59.14;95592.94;6186894;23;20019;-85
2024/01/13 04:12:05;;;;;;;10.25;5.05;;;;;;;-0.83;57.96;95619.50;6187400;23;20008;-84
2024/01/13 04:14:31;;;;;;;11.00;5.05;;;;;;;-0.90;58.04;95625.09;6213068;23;20008;-85
2024/01/13 04:19:21;;;;;;;8.35;4.88;;;;;;;-1.47;57.80;95611.56;6213089;23;20013;-85
2024/01/13 04:21:47;;;;;;;12.00;5.90;;;;;;;-1.33;58.65;95610.75;6216812;23;20042;-85
2024/01/13 04:26:38;;;;;;;16.63;7.63;;;;;;;-1.21;59.02;95621.91;6156597;23;20083;-85
2024/01/13 04:29:03;;;;;;;22.98;9.32;;;;;;;-0.96;59.38;95623.75;6132902;23;20028;-85
2024/01/13 04:31:29;;;;;;;24.65;10.48;;;;;;;-0.99;60.60;95618.81;6133178;23;20008;-85
2024/01/13 04:33:57;;;;;;;28.73;10.93;;;;;;;-1.27;61.59;95609.56;6132035;23;20036;-85
2024/01/13 04:36:22;;;;;;;29.27;11.70;;;;;;;-0.87;61.02;95622.34;6131156;23;20005;-85
2024/01/13 04:43:58;;;;;;;24.30;10.55;;;;;;;-0.67;60.63;95609.09;6210316;23;20020;-85
2024/01/13 04:46:24;;;;;;;31.75;12.07;;;;;;;-0.73;60.75;95624.84;6187395;23;20058;-85
2024/01/13 04:48:49;;;;;;;25.20;11.07;;;;;;;-0.52;60.63;95622.63;6160627;23;20012;-84
2024/01/13 04:51:16;;;;;;;25.15;10.82;;;;;;;-0.55;60.96;95615.19;6161927;23;20016;-85
2024/01/13 04:53:43;;;;;;;28.02;10.88;;;;;;;-0.35;60.07;95613.06;6187041;23;20079;-84
2024/01/13 04:58:33;;;;;;;25.30;10.88;;;;;;;-0.53;60.32;95612.50;6209264;23;20035;-85
2024/01/13 05:00:59;;;;;;;25.30;11.63;;;;;;;-0.36;60.42;95596.06;6187312;23;20081;-84
2024/01/13 05:03:28;;;;;;;28.55;11.82;;;;;;;-0.14;59.64;95603.16;6162855;23;20036;-84
2024/01/13 05:05:54;;;;;;;31.00;13.23;;;;;;;0.25;59.16;95609.03;6161623;23;20016;-84
2024/01/13 05:08:19;;;;;;;29.08;11.82;;;;;;;0.13;59.77;95605.56;6162364;23;20012;-85
2024/01/13 05:10:45;;;;;;;30.17;12.50;;;;;;;0.16;59.41;95606.19;6103807;23;20028;-85
2024/01/13 05:13:10;;;;;;;27.85;12.60;;;;;;;0.08;59.72;95599.97;6103707;23;20009;-84
2024/01/13 05:15:38;;;;;;;30.52;12.88;;;;;;;0.18;59.58;95616.31;6103559;23;20025;-85
2024/01/13 05:18:04;;;;;;;27.17;12.20;;;;;;;0.22;59.63;95609.25;6104064;23;20084;-85
2024/01/13 05:20:34;;;;;;;27.75;12.40;;;;;;;0.07;59.95;95621.34;6127746;23;20037;-85
2024/01/13 05:23:00;;;;;;;27.20;11.27;;;;;;;0.18;59.53;95632.47;6104512;23;20033;-85
2024/01/13 05:28:02;;;;;;;24.90;11.55;;;;;;;0.12;60.00;95612.44;6188254;23;20087;-85
2024/01/13 05:30:32;;;;;;;26.33;11.98;;;;;;;0.14;59.38;95610.59;6213635;23;20005;-85
2024/01/13 05:32:57;;;;;;;28.75;11.60;;;;;;;0.29;59.45;95615.59;6214255;23;20036;-85
2024/01/13 05:35:23;;;;;;;25.33;10.63;;;;;;;-0.03;59.74;95604.06;6188443;23;20007;-85
2024/01/13 05:37:48;;;;;;;28.70;12.43;;;;;;;-0.12;59.79;95607.22;6163892;23;20009;-85
2024/01/13 05:48:00;;;;;;;30.27;13.02;;;;;;;0.07;60.17;95611.13;6214859;23;20020;-85
2024/01/13 05:50:26;;;;;;;28.45;12.95;;;;;;;0.06;60.65;95605.19;6188752;23;20036;-84
2024/01/13 05:52:52;;;;;;;30.35;12.20;;;;;;;0.24;60.14;95605.66;6189072;23;20020;-84
2024/01/13 05:55:17;;;;;;;33.95;12.88;;;;;;;0.43;59.55;95609.53;6188592;23;20004;-85
2024/01/13 06:00:09;;;;;;;27.48;11.77;;;;;;;0.38;59.88;95613.22;6183840;23;20028;-86
2024/01/13 06:02:35;;;;;;;32.40;13.05;;;;;;;0.49;59.86;95614.22;6163839;23;20065;-85
2024/01/13 06:05:01;;;;;;;31.63;12.57;;;;;;;0.39;59.76;95609.72;6164336;23;20036;-85
2024/01/13 06:07:26;;;;;;;31.08;12.68;;;;;;;0.40;59.91;95608.03;6163369;23;20009;-85
2024/01/13 06:09:52;;;;;;;30.00;12.70;;;;;;;0.41;59.61;95616.50;6188368;23;20000;-85
2024/01/13 06:12:20;;;;;;;28.35;13.00;;;;;;;0.42;59.58;95618.13;6188276;23;20004;-85
2024/01/13 06:14:46;;;;;;;33.15;13.70;;;;;;;0.59;59.40;95635.69;6188112;23;20007;-85
2024/01/13 06:17:13;;;;;;;28.45;12.82;;;;;;;0.69;59.41;95643.56;6164188;23;20012;-85
2024/01/13 06:27:14;;;;;;;30.98;13.10;;;;;;;0.49;59.73;95629.56;6190098;23;20106;-85
2024/01/13 06:29:42;;;;;;;29.25;12.30;;;;;;;0.48;60.25;95623.66;6193317;23;20012;-84
2024/01/13 06:32:08;;;;;;;30.05;12.82;;;;;;;0.61;60.12;95635.59;6218654;23;20031;-85
2024/01/13 06:34:33;;;;;;;29.95;13.32;;;;;;;0.12;61.89;95639.75;6168510;23;20012;-85
2024/01/13 06:39:24;;;;;;;28.92;13.13;;;;;;;0.36;61.22;95632.16;6213808;23;20031;-84
2024/01/13 06:41:49;;;;;;;28.10;12.60;;;;;;;0.70;60.10;95629.84;6192720;23;20020;-85
2024/01/13 06:44:15;;;;;;;29.42;13.18;;;;;;;0.71;59.66;95634.84;6191434;23;20085;-84
2024/01/13 06:46:40;;;;;;;31.42;12.52;;;;;;;0.39;60.96;95619.16;6193235;23;20008;-84
2024/01/13 06:49:08;;;;;;;28.02;12.60;;;;;;;0.29;60.72;95613.84;6192937;23;20039;-85
2024/01/13 06:51:34;;;;;;;30.15;13.00;;;;;;;0.42;60.25;95610.44;6168256;23;20000;-85
2024/01/13 06:54:01;;;;;;;29.08;12.43;;;;;;;0.48;60.26;95610.03;6193320;23;20015;-85
2024/01/13 06:58:53;;;;;;;32.70;13.48;;;;;;;0.69;60.19;95618.78;6207408;23;20020;-85
2024/01/13 07:01:19;;;;;;;31.73;14.05;;;;;;;0.77;59.48;95620.81;6162954;23;20024;-86
2024/01/13 07:03:45;;;;;;;29.25;13.48;;;;;;;0.69;60.00;95608.53;6193531;23;20012;-85
2024/01/13 07:06:10;;;;;;;30.38;13.45;;;;;;;0.84;59.37;95611.78;6192998;23;20015;-85
2024/01/13 07:08:36;;;;;;;32.00;14.18;;;;;;;0.82;59.67;95597.44;6192997;23;20016;-85
2024/01/13 07:21:22;;;;;;;29.73;12.48;;;;;;;0.96;59.32;95615.22;6213716;23;20025;-86
2024/01/13 07:23:47;;;;;;;27.95;12.23;;;;;;;1.15;58.99;95618.09;6188200;23;20026;-85
2024/01/13 07:26:14;;;;;;;27.38;12.35;;;;;;;1.29;58.24;95613.72;6192533;23;20085;-85
2024/01/13 07:28:40;;;;;;;26.90;11.65;;;;;;;1.27;58.52;95620.69;6193315;23;20035;-86
2024/01/13 07:31:06;;;;;;;26.80;12.02;;;;;;;1.30;58.13;95602.56;6192921;23;20008;-86
2024/01/13 07:33:31;;;;;;;28.33;12.10;;;;;;;1.15;58.60;95612.97;6169017;23;20146;-85
2024/01/13 07:35:58;;;;;;;27.05;12.65;;;;;;;1.21;58.84;95616.84;6187621;23;20016;-86
2024/01/13 07:38:24;;;;;;;29.80;12.82;;;;;;;1.24;59.67;95620.91;6212494;23;20001;-85
2024/01/13 07:40:53;;;;;;;26.77;12.27;;;;;;;1.15;59.37;95612.16;6187844;23;20008;-85
2024/01/13 07:43:18;;;;;;;25.55;12.02;;;;;;;1.43;58.35;95605.03;6212516;23;20004;-85
2024/01/13 07:45:47;;;;;;;21.33;10.07;;;;;;;1.53;58.15;95623.94;6212915;23;20045;-85
2024/01/13 07:48:12;;;;;;;22.88;10.63;;;;;;;1.63;57.31;95621.53;6139419;23;20000;-85
2024/01/13 07:50:40;;;;;;;19.67;9.63;;;;;;;1.55;57.84;95609.28;6138446;23;20008;-85
2024/01/13 07:53:06;;;;;;;20.80;9.63;;;;;;;1.53;57.75;95606.81;6187325;23;20012;-85
2024/01/13 07:55:31;;;;;;;19.83;8.95;;;;;;;1.76;57.02;95625.63;6162906;23;20012;-85
2024/01/13 07:57:58;;;;;;;21.00;9.55;;;;;;;1.64;56.91;95618.00;6187573;23;20004;-85
2024/01/13 08:00:26;;;;;;;19.75;9.05;;;;;;;1.71;56.75;95624.31;6187568;23;20005;-86
2024/01/13 08:07:52;;;;;;;18.70;8.73;;;;;;;1.76;56.79;95640.22;6153618;23;20022;-85
2024/01/13 08:10:18;;;;;;;20.85;9.43;;;;;;;1.74;56.93;95634.38;6128230;23;20018;-84
2024/01/13 08:12:43;;;;;;;18.83;8.90;;;;;;;1.70;57.04;95648.34;6104142;23;20014;-85
2024/01/13 08:15:09;;;;;;;20.25;9.48;;;;;;;1.56;57.33;95642.50;6103702;23;20020;-85
2024/01/13 08:17:34;;;;;;;20.63;9.50;;;;;;;1.63;57.21;95652.28;6103796;23;20013;-85
2024/01/13 08:22:25;;;;;;;20.58;9.65;;;;;;;1.78;56.25;95646.03;6173555;23;20119;-85
2024/01/13 08:24:50;;;;;;;20.55;9.77;;;;;;;1.70;57.13;95645.78;6108894;23;20024;-85
2024/01/13 08:27:16;;;;;;;20.77;9.77;;;;;;;1.73;57.32;95640.41;6156470;23;20060;-85
2024/01/13 08:29:41;;;;;;;20.67;9.80;;;;;;;1.74;56.80;95645.44;6132075;23;20005;-85
2024/01/13 08:32:10;;;;;;;23.90;9.80;;;;;;;1.83;56.90;95640.56;6131978;23;20096;-86
2024/01/13 08:34:35;;;;;;;20.90;9.98;;;;;;;1.75;56.86;95631.69;6156477;23;20004;-85
2024/01/13 08:37:01;;;;;;;22.17;9.80;;;;;;;1.92;56.15;95620.19;6129697;23;20020;-86
2024/01/13 08:39:26;;;;;;;21.70;10.07;;;;;;;1.73;56.87;95625.88;6107903;23;20014;-85
2024/01/13 08:41:52;;;;;;;20.75;10.18;;;;;;;1.82;56.74;95621.78;6168834;23;20019;-85
2024/01/13 08:44:17;;;;;;;22.13;10.10;;;;;;;1.85;56.86;95624.13;6161654;23;20011;-84
2024/01/13 08:51:43;;;;;;;20.60;9.25;;;;;;;2.01;55.65;95621.25;6237613;23;20021;-85
2024/01/13 08:54:09;;;;;;;19.95;9.73;;;;;;;1.95;55.62;95614.00;6167077;23;20018;-85
2024/01/13 08:56:35;;;;;;;20.88;9.50;;;;;;;2.38;53.54;95608.22;6216152;23;20066;-85
2024/01/13 08:59:02;;;;;;;21.70;9.93;;;;;;;1.91;54.52;95594.66;6194568;23;20054;-85
2024/01/13 09:01:27;;;;;;;24.60;11.43;;;;;;;1.92;54.92;95591.13;6219205;23;20000;-85
2024/01/13 09:12:30;;;;;;;23.83;10.77;;;;;;;2.35;56.26;95593.84;6202502;23;20021;-85
2024/01/13 09:14:58;;;;;;;18.10;9.68;;;;;;;3.00;54.28;95583.69;6158175;23;20017;-85
2024/01/13 09:17:24;;;;;;;20.27;10.32;;;;;;;3.98;51.01;95592.06;6183454;23;20009;-84
2024/01/13 09:19:52;;;;;;;17.15;8.82;;;;;;;5.04;48.23;95588.22;6183345;23;20143;-84
2024/01/13 09:22:18;;;;;;;18.23;10.02;;;;;;;5.82;47.49;95599.31;6158892;23;20009;-85
2024/01/13 09:24:43;;;;;;;17.98;9.82;;;;;;;5.80;46.07;95601.22;6158864;23;20079;-85
2024/01/13 09:27:09;;;;;;;18.50;9.52;;;;;;;5.77;46.24;95588.59;6158702;23;20008;-86
2024/01/13 09:29:34;;;;;;;17.67;10.02;;;;;;;5.39;47.46;95608.31;6183193;23;20013;-86
2024/01/13 09:32:00;;;;;;;18.25;10.10;;;;;;;5.19;47.86;95604.91;6183544;23;20009;-86
2024/01/13 09:34:27;;;;;;;17.55;10.23;;;;;;;4.99;47.37;95614.41;6182792;23;20088;-86
2024/01/13 09:36:53;;;;;;;16.98;9.30;;;;;;;4.52;48.87;95606.41;6183143;23;20001;-86
2024/01/13 09:49:39;;;;;;;18.63;10.10;;;;;;;3.60;50.68;95624.31;6196613;23;20012;-86
2024/01/13 09:52:06;;;;;;;18.27;10.13;;;;;;;3.50;50.26;95622.53;6216626;23;20012;-85
2024/01/13 09:54:33;;;;;;;16.65;9.23;;;;;;;3.66;50.15;95614.38;6218515;23;20139;-85
2024/01/13 09:56:58;;;;;;;19.77;10.18;;;;;;;3.62;49.68;95625.84;6192710;23;20008;-85
2024/01/13 10:04:26;;;;;;;19.15;10.07;;;;;;;3.06;51.73;95614.03;6243842;22;20119;-86
2024/01/13 10:06:51;;;;;;;19.00;9.73;;;;;;;2.90;52.66;95600.78;6217305;23;20000;-85
2024/01/13 10:09:17;;;;;;;18.17;9.65;;;;;;;3.42;51.65;95611.22;6217405;23;20066;-85
2024/01/13 10:11:46;;;;;;;22.08;9.43;;;;;;;3.21;51.88;95606.84;6194111;23;20091;-85
2024/01/13 10:16:37;;;;;;;19.33;10.32;;;;;;;2.91;52.66;95599.81;6209446;23;20016;-85
2024/01/13 10:19:08;;;;;;;19.00;10.13;;;;;;;3.10;52.78;95602.59;6163599;23;20110;-85
2024/01/13 10:21:36;;;;;;;16.58;9.05;;;;;;;3.30;51.71;95580.41;6163056;23;20016;-86
2024/01/13 10:24:05;;;;;;;16.90;9.23;;;;;;;3.35;50.68;95580.06;6187779;23;19996;-87
2024/01/13 10:26:32;;;;;;;15.82;8.55;;;;;;;2.66;52.95;95575.25;6187394;23;19996;-86
2024/01/13 11:22:57;;;;;;;14.63;8.48;;;;;;;4.55;48.51;95489.41;6211124;23;20012;-85
2024/01/13 11:25:27;;;;;;;14.68;8.30;;;;;;;4.33;48.84;95491.28;6186928;23;20016;-85
2024/01/13 11:28:02;;;;;;;16.17;8.88;;;;;;;4.53;49.43;95497.25;6137441;23;20016;-85
2024/01/13 11:30:40;;;;;;;16.63;8.48;;;;;;;4.79;48.62;95496.75;6187178;23;20025;-85
2024/01/13 11:33:16;;;;;;;15.77;8.13;;;;;;;4.95;47.81;95494.47;6188044;23;20019;-85
2024/01/13 11:35:46;;;;;;;16.77;9.10;;;;;;;4.99;48.08;95498.41;6163022;23;20012;-85
2024/01/13 11:40:47;;;;;;;16.20;9.32;;;;;;;5.22;47.60;95487.81;6184471;23;20017;-85
2024/01/13 11:43:26;;;;;;;17.30;9.40;;;;;;;5.12;48.16;95495.50;6216760;23;20092;-85
2024/01/13 11:45:55;;;;;;;19.33;9.65;;;;;;;5.66;46.88;95494.06;6193162;23;20071;-85
2024/01/13 11:48:30;;;;;;;19.00;9.52;;;;;;;5.67;46.47;95489.72;6217490;23;20027;-87
2024/01/13 12:03:42;;;;;;;21.73;10.43;;;;;;;5.02;49.79;95454.28;6210710;23;20017;-85
2024/01/13 12:06:10;;;;;;;18.63;10.27;;;;;;;5.04;49.27;95470.44;6186922;23;20005;-85
2024/01/13 12:08:37;;;;;;;17.30;9.75;;;;;;;5.32;48.63;95470.53;6162389;23;20012;-86
2024/01/13 12:11:05;;;;;;;20.00;9.70;;;;;;;4.88;50.05;95449.56;6186681;23;20013;-86
2024/01/13 12:57:18;;;;;;;17.95;9.68;;;;;;;4.06;52.28;95360.63;6216210;22;20039;-85
2024/01/13 12:59:45;;;;;;;19.40;9.55;;;;;;;4.35;51.49;95364.97;6218705;23;20020;-86
2024/01/13 13:02:10;;;;;;;16.30;9.63;;;;;;;4.71;51.35;95371.19;6191733;23;20012;-85
2024/01/13 13:04:39;;;;;;;17.70;9.55;;;;;;;5.14;50.05;95357.00;6168811;23;20012;-85
2024/01/13 13:07:04;;;;;;;18.10;9.80;;;;;;;5.22;50.02;95366.59;6218425;23;19996;-85
2024/01/13 15:07:45;;;;;;;22.48;11.50;;;;;;;3.99;53.43;95328.63;6201808;23;20021;-85
2024/01/13 15:10:10;;;;;;;24.08;12.77;;;;;;;4.29;52.07;95332.84;6186213;23;20020;-86
2024/01/13 15:12:37;;;;;;;24.05;12.63;;;;;;;4.26;52.34;95327.94;6162990;23;20013;-85
2024/01/13 15:15:04;;;;;;;22.67;11.85;;;;;;;4.42;51.49;95332.56;6187775;23;20011;-85
2024/01/13 15:17:30;;;;;;;21.33;11.35;;;;;;;4.35;52.30;95339.22;6186487;23;20070;-86
2024/01/13 15:19:55;;;;;;;22.48;11.27;;;;;;;4.10;51.97;95325.94;6187174;23;20064;-86
2024/01/13 16:34:17;;;;;;;33.38;14.32;;;;;;;1.05;58.97;95255.94;6100498;23;20037;-85
2024/01/13 16:36:43;;;;;;;31.35;14.52;;;;;;;1.03;59.56;95254.41;6098426;23;20104;-85
2024/01/13 16:39:09;;;;;;;28.50;14.27;;;;;;;1.04;59.14;95240.69;6074789;23;20018;-86
2024/01/13 16:41:34;;;;;;;34.10;14.60;;;;;;;1.13;58.97;95248.47;6152666;23;20017;-86
2024/01/13 17:04:38;;;;;;;38.83;19.35;;;;;;;1.25;57.11;95222.84;6213133;23;20017;-85
2024/01/13 17:07:03;;;;;;;59.00;30.70;;;;;;;1.22;57.30;95218.78;6162925;23;20008;-86
2024/01/13 17:11:57;;;;;;;55.05;27.33;;;;;;;1.07;58.60;95233.59;6212195;23;20028;-86
2024/01/13 17:14:23;;;;;;;42.15;21.05;;;;;;;1.21;58.36;95234.28;6185896;23;20035;-86
2024/01/13 17:16:50;;;;;;;31.63;14.00;;;;;;;1.30;57.87;95228.44;6161784;23;20008;-85
2024/01/13 17:26:47;;;;;;;19.85;9.88;;;;;;;1.47;58.27;95222.78;6207852;23;20024;-84
2024/01/13 17:39:27;;;;;;;17.80;8.15;;;;;;;1.15;57.61;95215.06;6209598;23;20032;-86
2024/01/13 17:41:56;;;;;;;17.05;8.02;;;;;;;1.29;57.19;95208.84;6163832;23;20013;-86
2024/01/13 17:44:21;;;;;;;14.38;7.32;;;;;;;1.69;56.00;95221.06;6164421;23;20009;-86
2024/01/13 18:04:53;;;;;;;15.13;7.53;;;;;;;1.53;55.66;95195.84;6160164;23;20100;-86
2024/01/13 18:07:19;;;;;;;12.93;7.05;;;;;;;1.61;55.77;95202.94;6134039;23;20004;-86
2024/01/13 18:09:44;;;;;;;15.88;7.82;;;;;;;1.51;55.90;95202.84;6159143;23;20013;-86
2024/01/13 18:12:11;;;;;;;14.68;7.53;;;;;;;1.29;56.41;95176.34;6158198;23;20040;-86
2024/01/13 18:14:37;;;;;;;15.65;7.88;;;;;;;1.51;55.55;95183.16;6157756;23;20004;-85
2024/01/13 18:24:38;;;;;;;21.77;10.75;;;;;;;1.43;56.03;95182.97;6211510;23;20008;-85
2024/01/13 18:27:05;;;;;;;21.55;10.75;;;;;;;1.50;56.00;95190.97;6162898;23;20011;-85
2024/01/13 18:29:31;;;;;;;19.55;9.07;;;;;;;1.52;55.70;95197.59;6187726;23;20012;-86
2024/01/13 18:31:57;;;;;;;17.08;8.95;;;;;;;1.24;56.09;95186.16;6187717;23;20013;-85
2024/01/13 18:34:23;;;;;;;17.45;8.65;;;;;;;1.39;55.95;95198.69;6187795;23;20091;-86
2024/01/13 18:36:51;;;;;;;18.70;9.82;;;;;;;1.18;56.23;95196.88;6137832;23;20152;-85
2024/01/13 18:39:17;;;;;;;18.90;9.07;;;;;;;1.11;56.64;95191.44;6187895;23;20004;-85
2024/01/13 18:41:45;;;;;;;18.80;8.88;;;;;;;0.94;57.27;95190.19;6187876;23;20088;-85
2024/01/13 18:44:11;;;;;;;18.90;8.23;;;;;;;1.07;56.52;95189.25;6162332;23;20051;-85
2024/01/13 18:49:12;;;;;;;17.60;8.60;;;;;;;1.04;56.92;95176.66;6205827;23;20020;-87
2024/01/13 18:51:37;;;;;;;19.30;9.40;;;;;;;0.95;56.81;95185.88;6162962;23;20028;-85
2024/01/13 18:54:03;;;;;;;19.77;9.27;;;;;;;0.91;56.92;95194.72;6138183;23;20023;-85
2024/01/13 18:56:30;;;;;;;20.35;9.30;;;;;;;0.94;57.22;95202.19;6162173;23;20013;-85
2024/01/13 18:58:58;;;;;;;17.52;8.43;;;;;;;0.98;56.63;95176.19;6187391;23;20047;-85
2024/01/13 19:01:26;;;;;;;16.90;8.30;;;;;;;0.86;56.50;95191.72;6211521;23;20040;-85
2024/01/13 19:03:52;;;;;;;19.45;9.38;;;;;;;0.88;56.60;95175.31;6187516;23;20043;-86
2024/01/13 19:06:22;;;;;;;20.35;8.98;;;;;;;1.04;56.25;95192.84;6186074;23;20008;-86
2024/01/13 19:08:51;;;;;;;19.48;8.55;;;;;;;0.98;56.19;95177.97;6187418;23;20008;-85
2024/01/13 19:11:17;;;;;;;17.92;8.05;;;;;;;0.56;57.05;95186.25;6157183;23;20025;-85
2024/01/13 19:13:43;;;;;;;16.02;8.02;;;;;;;0.88;56.79;95189.88;6153261;23;20091;-85
2024/01/13 19:16:08;;;;;;;17.05;8.18;;;;;;;0.97;56.31;95189.97;6103142;23;20013;-85
2024/01/13 19:18:36;;;;;;;17.10;8.25;;;;;;;0.90;56.42;95193.13;6103547;23;20062;-85
2024/01/13 19:23:27;;;;;;;15.80;8.00;;;;;;;0.61;57.01;95172.28;6182342;23;20025;-85
2024/01/13 19:25:52;;;;;;;15.20;7.68;;;;;;;0.62;57.29;95172.19;6132465;23;20027;-87
2024/01/13 19:28:18;;;;;;;16.33;8.23;;;;;;;0.75;56.72;95190.00;6132850;23;20070;-85
2024/01/13 19:38:21;;;;;;;17.20;9.40;;;;;;;0.61;56.77;95195.34;6180475;23;20013;-86
2024/01/13 19:40:50;;;;;;;16.80;8.60;;;;;;;0.70;56.18;95195.44;6133285;23;20013;-85
2024/01/13 19:43:16;;;;;;;14.50;8.00;;;;;;;0.67;56.14;95198.25;6133849;23;20091;-86
2024/01/13 19:50:45;;;;;;;14.43;7.13;;;;;;;0.66;56.97;95209.41;6181239;23;20029;-86
2024/01/13 19:53:14;;;;;;;15.60;7.80;;;;;;;0.53;56.71;95206.16;6132014;23;20009;-85
2024/01/13 19:55:40;;;;;;;16.50;7.93;;;;;;;0.56;56.82;95205.94;6156508;23;20076;-85